Terminal Aerodrome Forecast
Issued by NWS Medford, OR

Home | Current Version | Previous Version | Text Only | Print | Product List | Glossary On
Versions: 1 2 3 4 5 6 7 8 9 10 11 12 13 14 15 16 17 18 19 20 21
000
FTUS46 KMFR 240537
TAFMFR
TAF
KMFR 240537Z 2406/2506 VRB05KT P6SM BKN070 WS020/22030KT
     FM241000 15005KT P6SM BKN050 OVC080 WS020/22035KT
     FM241800 16010KT P6SM -RA BKN040
     FM242300 27012G23KT 6SM -SHRA BKN028 OVC040=

USA.gov is the U.S. government's official web portal to all federal, state and local government web resources and services.